createdAt,value
2023-03-04T00:02:16.957Z,18.80
2023-03-04T00:04:43.865Z,19.95
2023-03-04T00:09:37.477Z,21.15
2023-03-04T00:14:31.201Z,19.90
2023-03-04T00:19:24.761Z,18.58
2023-03-04T00:24:18.269Z,20.83
2023-03-04T00:29:11.803Z,19.98
2023-03-04T00:34:05.440Z,20.12
2023-03-04T00:38:58.953Z,19.73
2023-03-04T00:43:52.576Z,19.60
2023-03-04T00:46:19.449Z,20.95
2023-03-04T00:51:12.978Z,18.87
2023-03-04T00:56:07.105Z,19.00
2023-03-04T00:58:33.952Z,19.27
2023-03-04T01:03:31.511Z,20.12
2023-03-04T01:05:58.793Z,21.02
2023-03-04T01:08:26.767Z,19.30
2023-03-04T01:10:53.655Z,19.50
2023-03-04T01:15:47.186Z,19.50
2023-03-04T01:18:14.153Z,19.55
2023-03-04T01:20:41.016Z,20.35
2023-03-04T01:23:07.895Z,19.90
2023-03-04T01:28:01.508Z,20.17
2023-03-04T01:32:55.053Z,19.98
2023-03-04T01:37:48.616Z,19.55
2023-03-04T01:42:42.294Z,20.90
2023-03-04T01:45:13.383Z,20.73
2023-03-04T01:47:40.659Z,20.42
2023-03-04T01:50:12.252Z,20.52
2023-03-04T01:52:39.848Z,19.77
2023-03-04T01:55:15.594Z,20.17
2023-03-04T01:57:43.487Z,20.05
2023-03-04T02:00:26.176Z,20.55
2023-03-04T02:02:55.858Z,20.65
2023-03-04T02:05:23.181Z,20.52
2023-03-04T02:07:50.815Z,21.37
2023-03-04T02:10:18.004Z,20.37
2023-03-04T02:12:45.445Z,22.42
2023-03-04T02:15:12.717Z,21.55
2023-03-04T02:17:39.921Z,21.90
2023-03-04T02:20:43.795Z,23.25
2023-03-04T02:23:16.460Z,21.65
2023-03-04T02:25:51.194Z,22.83
2023-03-04T02:28:18.131Z,22.25
2023-03-04T02:33:17.424Z,21.05
2023-03-04T02:35:44.611Z,22.55
2023-03-04T02:38:12.437Z,21.60
2023-03-04T02:40:40.771Z,21.85
2023-03-04T02:43:10.729Z,22.90
2023-03-04T02:45:47.738Z,23.67
2023-03-04T02:48:18.869Z,22.80
2023-03-04T02:50:48.475Z,23.38
2023-03-04T02:53:15.728Z,23.23
2023-03-04T02:55:43.808Z,23.83
2023-03-04T02:58:11.171Z,23.05
2023-03-04T03:00:38.196Z,24.63
2023-03-04T03:03:05.684Z,24.50
2023-03-04T03:05:34.338Z,24.48
2023-03-04T03:08:02.271Z,25.10
2023-03-04T03:10:29.233Z,24.90
2023-03-04T03:12:56.429Z,24.85
2023-03-04T03:15:23.449Z,25.58
2023-03-04T03:17:50.380Z,26.27
2023-03-04T03:20:17.663Z,25.42
2023-03-04T03:22:44.656Z,26.27
2023-03-04T03:25:12.935Z,25.52
2023-03-04T03:27:39.919Z,25.55
2023-03-04T03:30:08.306Z,25.02
2023-03-04T03:32:35.202Z,25.75
2023-03-04T03:35:02.359Z,26.02
2023-03-04T03:37:29.231Z,25.15
2023-03-04T03:42:22.870Z,24.15
2023-03-04T03:44:50.452Z,23.77
2023-03-04T03:47:17.406Z,25.12
2023-03-04T03:49:44.305Z,23.20
2023-03-04T03:54:38.361Z,23.40
2023-03-04T03:57:05.296Z,22.67
2023-03-04T03:59:32.390Z,23.05
2023-03-04T04:01:59.362Z,22.65
2023-03-04T04:04:26.351Z,24.73
2023-03-04T04:09:20.990Z,22.83
2023-03-04T04:11:47.882Z,22.85
2023-03-04T04:16:41.678Z,22.90
2023-03-04T04:21:35.232Z,19.98
2023-03-04T04:26:28.782Z,17.58
2023-03-04T04:31:22.371Z,17.73
2023-03-04T04:36:16.664Z,17.20
2023-03-04T04:38:43.885Z,16.35
2023-03-04T04:41:20.651Z,15.93
2023-03-04T04:43:47.918Z,15.50
2023-03-04T04:46:15.940Z,15.30
2023-03-04T04:48:44.976Z,15.77
2023-03-04T04:51:12.157Z,14.02
2023-03-04T04:53:39.287Z,14.82
2023-03-04T04:56:17.779Z,14.23
2023-03-04T04:58:44.940Z,13.88
2023-03-04T05:01:12.273Z,13.98
2023-03-04T05:03:39.963Z,12.27
2023-03-04T05:06:08.514Z,12.25
2023-03-04T05:08:35.945Z,12.15
2023-03-04T05:11:04.818Z,11.48
2023-03-04T05:13:32.163Z,10.77
2023-03-04T05:15:59.475Z,11.20
2023-03-04T05:18:27.809Z,9.43
2023-03-04T05:20:56.348Z,10.30
2023-03-04T05:23:24.217Z,10.10
2023-03-04T05:25:51.402Z,9.93
2023-03-04T05:28:18.672Z,10.55
2023-03-04T05:30:46.063Z,11.55
2023-03-04T05:33:14.841Z,9.32
2023-03-04T05:35:42.733Z,9.90
2023-03-04T05:38:11.419Z,8.48
2023-03-04T05:40:39.103Z,8.98
2023-03-04T05:43:06.033Z,9.40
2023-03-04T05:45:32.964Z,10.73
2023-03-04T05:50:27.035Z,10.88
2023-03-04T05:52:53.950Z,11.38
2023-03-04T05:55:20.910Z,11.45
2023-03-04T05:57:48.102Z,11.52
2023-03-04T06:00:17.261Z,10.57
2023-03-04T06:02:44.704Z,12.93
2023-03-04T06:05:13.465Z,13.40
2023-03-04T06:07:40.402Z,12.13
2023-03-04T06:10:07.871Z,9.10
2023-03-04T06:12:34.723Z,10.85
2023-03-04T06:17:30.546Z,9.00
2023-03-04T06:19:57.415Z,11.30
2023-03-04T06:22:24.308Z,11.88
2023-03-04T06:24:51.150Z,11.95
2023-03-04T06:29:44.848Z,9.10
2023-03-04T06:32:11.774Z,11.00
2023-03-04T06:34:38.687Z,11.57
2023-03-04T06:37:05.562Z,10.30
2023-03-04T06:39:33.049Z,12.25
2023-03-04T06:41:59.968Z,11.25
2023-03-04T06:44:26.861Z,12.15
2023-03-04T06:46:53.803Z,11.15
2023-03-04T06:49:20.767Z,12.82
2023-03-04T06:51:47.622Z,13.80
2023-03-04T06:54:14.462Z,12.70
2023-03-04T06:59:07.997Z,13.98
2023-03-04T07:01:35.345Z,14.00
2023-03-04T07:04:02.875Z,14.80
2023-03-04T07:06:30.073Z,14.30
2023-03-04T07:08:58.139Z,14.45
2023-03-04T07:11:25.721Z,14.10
2023-03-04T07:13:52.827Z,14.27
2023-03-04T07:16:21.979Z,15.93
2023-03-04T07:18:49.398Z,15.55
2023-03-04T07:21:17.035Z,15.45
2023-03-04T07:23:43.962Z,15.52
2023-03-04T07:26:11.120Z,16.23
2023-03-04T07:28:38.135Z,17.12
2023-03-04T07:31:20.072Z,17.33
2023-03-04T07:33:46.976Z,17.15
2023-03-04T07:36:15.092Z,18.30
2023-03-04T07:38:48.796Z,18.00
2023-03-04T07:41:16.370Z,17.80
2023-03-04T07:43:43.588Z,18.33
2023-03-04T07:46:11.145Z,18.83
2023-03-04T07:48:38.458Z,17.87
2023-03-04T07:51:10.879Z,18.35
2023-03-04T07:53:39.175Z,18.02
2023-03-04T07:56:07.410Z,20.27
2023-03-04T07:58:34.394Z,18.55
2023-03-04T08:01:01.248Z,18.83
2023-03-04T08:03:29.851Z,19.73
2023-03-04T08:05:56.891Z,19.35
2023-03-04T08:08:23.751Z,18.77
2023-03-04T08:10:50.681Z,19.50
2023-03-04T08:13:17.581Z,18.23
2023-03-04T08:15:44.464Z,19.35
2023-03-04T08:18:11.445Z,19.62
2023-03-04T08:20:38.388Z,19.12
2023-03-04T08:23:05.335Z,18.25
2023-03-04T08:25:32.211Z,19.45
2023-03-04T08:27:59.805Z,19.70
2023-03-04T08:30:26.715Z,18.60
2023-03-04T08:32:53.726Z,16.58
2023-03-04T08:35:20.736Z,19.95
2023-03-04T08:37:47.654Z,19.05
2023-03-04T08:40:14.800Z,19.62
2023-03-04T08:42:41.981Z,19.35
2023-03-04T08:45:10.014Z,21.08
2023-03-04T08:47:37.172Z,20.45
2023-03-04T08:50:05.517Z,20.17
2023-03-04T08:52:32.502Z,19.98
2023-03-04T08:54:59.580Z,21.85
2023-03-04T08:57:26.515Z,20.10
2023-03-04T08:59:53.380Z,19.17
2023-03-04T09:02:20.358Z,19.17
2023-03-04T09:04:47.238Z,18.65
2023-03-04T09:07:14.489Z,19.77
2023-03-04T09:09:41.553Z,19.75
2023-03-04T09:12:08.652Z,18.50
2023-03-04T09:14:36.104Z,18.58
2023-03-04T09:17:04.144Z,17.98
2023-03-04T09:19:31.075Z,19.35
2023-03-04T09:21:59.565Z,18.80
2023-03-04T09:24:27.040Z,18.48
2023-03-04T09:26:54.406Z,18.60
2023-03-04T09:29:22.262Z,17.55
2023-03-04T09:31:49.151Z,19.55
2023-03-04T09:34:16.099Z,18.50
2023-03-04T09:36:43.029Z,19.62
2023-03-04T09:39:09.994Z,19.55
2023-03-04T09:41:42.729Z,19.60
2023-03-04T09:44:27.459Z,18.62
2023-03-04T09:46:58.572Z,19.75
2023-03-04T09:49:26.113Z,20.15
2023-03-04T09:52:15.305Z,20.73
2023-03-04T09:55:17.673Z,21.73
2023-03-04T09:57:53.155Z,18.60
2023-03-04T10:00:24.485Z,20.98
2023-03-04T10:03:06.884Z,19.83
2023-03-04T10:05:56.524Z,19.52
2023-03-04T10:08:41.874Z,18.98
2023-03-04T10:11:24.041Z,20.65
2023-03-04T10:14:23.329Z,19.27
2023-03-04T10:16:54.412Z,19.58
2023-03-04T10:19:52.514Z,19.83
2023-03-04T10:22:33.262Z,20.20
2023-03-04T10:25:22.332Z,20.50
2023-03-04T10:28:09.617Z,21.40
2023-03-04T10:30:51.561Z,20.00
2023-03-04T10:33:21.169Z,19.62
2023-03-04T10:36:07.053Z,20.00
2023-03-04T10:38:39.518Z,20.25
2023-03-04T10:41:21.216Z,20.30
2023-03-04T10:44:02.276Z,20.25
2023-03-04T10:46:30.206Z,20.52
2023-03-04T10:48:58.115Z,21.65
2023-03-04T10:51:27.853Z,21.73
2023-03-04T10:54:00.129Z,19.87
2023-03-04T10:56:45.647Z,21.87
2023-03-04T10:59:31.747Z,19.95
2023-03-04T11:02:00.113Z,22.85
2023-03-04T11:04:32.264Z,21.05
2023-03-04T11:06:59.149Z,21.20
2023-03-04T11:09:29.134Z,20.73
2023-03-04T11:11:59.668Z,20.17
2023-03-04T11:14:40.543Z,18.17
2023-03-04T11:17:50.426Z,19.42
2023-03-04T11:20:29.451Z,19.55
2023-03-04T11:22:58.169Z,20.48
2023-03-04T11:25:28.249Z,18.37
2023-03-04T11:28:01.135Z,20.15
2023-03-04T11:31:07.805Z,19.20
2023-03-04T11:33:56.179Z,17.87
2023-03-04T11:36:41.310Z,19.23
2023-03-04T11:39:20.438Z,18.55
2023-03-04T11:41:53.374Z,18.45
2023-03-04T11:44:20.313Z,18.02
2023-03-04T11:47:06.400Z,19.10
2023-03-04T11:50:02.284Z,19.00
2023-03-04T11:52:38.416Z,18.42
2023-03-04T11:55:08.512Z,20.30
2023-03-04T11:58:16.552Z,18.62
2023-03-04T12:01:04.893Z,17.37
2023-03-04T12:03:41.495Z,18.83
2023-03-04T12:06:36.049Z,19.98
2023-03-04T12:09:37.132Z,17.87
2023-03-04T12:12:38.055Z,19.48
2023-03-04T12:15:17.242Z,19.45
2023-03-04T12:17:56.598Z,18.52
2023-03-04T12:20:58.928Z,19.48
2023-03-04T12:23:36.559Z,18.20
2023-03-04T12:26:25.184Z,18.25
2023-03-04T12:28:55.054Z,18.35
2023-03-04T12:31:35.090Z,18.12
2023-03-04T12:34:32.590Z,18.55
2023-03-04T12:37:26.354Z,18.42
2023-03-04T12:40:08.266Z,18.48
2023-03-04T12:42:35.050Z,17.05
2023-03-04T12:47:47.831Z,17.40
2023-03-04T12:50:31.766Z,18.42
2023-03-04T12:53:14.723Z,18.12
2023-03-04T12:55:45.078Z,19.40
2023-03-04T12:58:25.091Z,19.52
2023-03-04T13:00:57.674Z,18.65
2023-03-04T13:03:38.185Z,16.77
2023-03-04T13:06:31.634Z,19.35
2023-03-04T13:09:04.356Z,19.98
2023-03-04T13:11:33.923Z,18.20
2023-03-04T13:14:06.543Z,19.83
2023-03-04T13:16:43.892Z,18.45
2023-03-04T13:21:56.557Z,18.55
2023-03-04T13:24:46.454Z,18.55
2023-03-04T13:27:48.819Z,17.55
2023-03-04T13:30:34.663Z,18.45
2023-03-04T13:33:16.403Z,18.70
2023-03-04T13:36:02.094Z,18.37
2023-03-04T13:38:31.009Z,19.05
2023-03-04T13:41:17.349Z,17.87
2023-03-04T13:43:45.970Z,17.25
2023-03-04T13:46:18.985Z,18.48
2023-03-04T13:48:51.825Z,19.30
2023-03-04T13:51:31.882Z,19.00
2023-03-04T13:53:58.696Z,19.85
2023-03-04T13:59:08.472Z,18.58
2023-03-04T14:01:41.318Z,19.23
2023-03-04T14:04:18.008Z,17.73
2023-03-04T14:06:48.873Z,19.23
2023-03-04T14:09:27.712Z,17.67
2023-03-04T14:11:57.368Z,17.80
2023-03-04T14:14:30.236Z,18.10
2023-03-04T14:17:00.601Z,17.83
2023-03-04T14:19:33.618Z,17.67
2023-03-04T14:22:01.266Z,17.37
2023-03-04T14:24:30.895Z,16.08
2023-03-04T14:27:14.416Z,15.55
2023-03-04T14:29:41.300Z,17.50
2023-03-04T14:32:08.765Z,17.17
2023-03-04T14:34:38.446Z,16.85
2023-03-04T14:37:20.268Z,15.73
2023-03-04T14:39:50.507Z,16.58
2023-03-04T14:42:18.989Z,16.92
2023-03-04T14:44:50.214Z,17.30
2023-03-04T14:47:22.256Z,17.35
2023-03-04T14:49:49.616Z,16.83
2023-03-04T14:52:39.230Z,16.58
2023-03-04T14:55:15.174Z,15.35
2023-03-04T14:57:44.363Z,12.95
2023-03-04T15:00:20.537Z,12.00
2023-03-04T15:02:52.872Z,11.27
2023-03-04T15:05:31.913Z,11.35
2023-03-04T15:08:02.347Z,10.88
2023-03-04T15:10:35.008Z,10.20
2023-03-04T15:13:05.138Z,10.82
2023-03-04T15:15:40.093Z,10.18
2023-03-04T15:18:27.393Z,9.77
2023-03-04T15:21:15.529Z,9.93
2023-03-04T15:23:42.395Z,9.00
2023-03-04T15:26:10.729Z,11.40
2023-03-04T15:28:38.730Z,11.00
2023-03-04T15:31:06.250Z,10.40
2023-03-04T15:33:33.182Z,10.30
2023-03-04T15:36:02.050Z,8.88
2023-03-04T15:38:29.509Z,8.95
2023-03-04T15:40:59.735Z,9.15
2023-03-04T15:43:27.250Z,8.65
2023-03-04T15:45:54.363Z,9.05
2023-03-04T15:48:21.462Z,10.10
2023-03-04T15:50:56.770Z,9.45
2023-03-04T15:53:34.243Z,9.07
2023-03-04T15:56:02.236Z,9.48
2023-03-04T15:58:30.288Z,10.65
2023-03-04T16:00:57.168Z,9.10
2023-03-04T16:03:24.217Z,8.43
2023-03-04T16:05:52.838Z,7.97
2023-03-04T16:08:21.767Z,8.30
2023-03-04T16:10:49.020Z,8.80
2023-03-04T16:13:18.752Z,8.77
2023-03-04T16:15:46.040Z,8.23
2023-03-04T16:18:14.160Z,9.30
2023-03-04T16:20:43.654Z,8.63
2023-03-04T16:23:19.490Z,9.02
2023-03-04T16:25:47.919Z,7.87
2023-03-04T16:28:14.798Z,8.18
2023-03-04T16:30:41.938Z,8.30
2023-03-04T16:33:08.839Z,7.95
2023-03-04T16:35:37.344Z,8.95
2023-03-04T16:38:06.612Z,8.18
2023-03-04T16:40:33.609Z,8.25
2023-03-04T16:43:00.491Z,7.68
2023-03-04T16:45:30.463Z,7.87
2023-03-04T16:47:57.346Z,8.10
2023-03-04T16:50:27.544Z,8.55
2023-03-04T16:52:55.221Z,8.98
2023-03-04T16:55:25.597Z,8.60
2023-03-04T16:57:53.192Z,8.55
2023-03-04T17:00:21.692Z,8.38
2023-03-04T17:02:56.287Z,9.05
2023-03-04T17:05:25.945Z,8.48
2023-03-04T17:07:52.815Z,8.20
2023-03-04T17:10:20.534Z,9.45
2023-03-04T17:12:47.564Z,7.97
2023-03-04T17:15:15.055Z,7.75
2023-03-04T17:17:43.212Z,9.43
2023-03-04T17:20:12.975Z,9.00
2023-03-04T17:22:40.083Z,9.30
2023-03-04T17:25:07.619Z,9.90
2023-03-04T17:27:34.510Z,9.18
2023-03-04T17:30:01.464Z,8.38
2023-03-04T17:32:28.705Z,9.70
2023-03-04T17:34:58.423Z,9.35
2023-03-04T17:37:25.583Z,9.35
2023-03-04T17:39:52.440Z,8.35
2023-03-04T17:44:46.259Z,9.02
2023-03-04T17:47:13.424Z,9.60
2023-03-04T17:49:40.308Z,9.88
2023-03-04T17:52:07.306Z,9.18
2023-03-04T17:54:36.169Z,9.93
2023-03-04T17:57:03.071Z,9.68
2023-03-04T17:59:29.909Z,8.82
2023-03-04T18:04:23.521Z,10.07
2023-03-04T18:09:17.070Z,8.90
2023-03-04T18:14:12.953Z,9.75
2023-03-04T18:16:40.359Z,9.75
2023-03-04T18:19:09.519Z,10.20
2023-03-04T18:21:36.948Z,10.25
2023-03-04T18:24:04.203Z,8.85
2023-03-04T18:26:31.122Z,9.45
2023-03-04T18:28:58.051Z,9.82
2023-03-04T18:31:30.275Z,9.18
2023-03-04T18:34:00.808Z,10.38
2023-03-04T18:36:27.871Z,10.02
2023-03-04T18:38:55.195Z,9.43
2023-03-04T18:41:22.041Z,10.85
2023-03-04T18:46:18.365Z,9.05
2023-03-04T18:48:53.137Z,7.35
2023-03-04T18:51:20.811Z,9.82
2023-03-04T18:53:48.024Z,9.02
2023-03-04T18:56:39.254Z,10.35
2023-03-04T18:59:16.812Z,9.20
2023-03-04T19:01:44.048Z,11.12
2023-03-04T19:04:11.484Z,11.05
2023-03-04T19:06:38.597Z,8.48
2023-03-04T19:09:06.761Z,10.27
2023-03-04T19:11:33.662Z,10.23
2023-03-04T19:14:00.536Z,8.75
2023-03-04T19:16:27.485Z,10.38
2023-03-04T19:18:54.422Z,7.90
2023-03-04T19:21:21.408Z,10.60
2023-03-04T19:23:48.275Z,10.70
2023-03-04T19:26:15.678Z,10.70
2023-03-04T19:28:42.905Z,10.43
2023-03-04T19:31:11.342Z,9.77
2023-03-04T19:33:39.421Z,9.68
2023-03-04T19:36:07.137Z,8.98
2023-03-04T19:38:34.466Z,8.27
2023-03-04T19:41:12.223Z,9.93
2023-03-04T19:43:39.689Z,8.40
2023-03-04T19:46:07.827Z,11.10
2023-03-04T19:48:36.419Z,9.65
2023-03-04T19:51:06.715Z,9.38
2023-03-04T19:53:34.854Z,8.40
2023-03-04T19:56:01.902Z,8.57
2023-03-04T19:58:28.748Z,10.38
2023-03-04T20:03:24.294Z,6.93
2023-03-04T20:05:51.235Z,6.45
2023-03-04T20:08:18.891Z,8.60
2023-03-04T20:10:45.904Z,8.70
2023-03-04T20:13:12.783Z,8.18
2023-03-04T20:15:42.969Z,8.38
2023-03-04T20:18:09.933Z,8.20
2023-03-04T20:20:39.128Z,7.12
2023-03-04T20:23:06.301Z,4.30
2023-03-04T20:25:33.186Z,7.85
2023-03-04T20:28:00.153Z,6.97
2023-03-04T20:30:27.045Z,7.97
2023-03-04T20:32:53.996Z,4.70
2023-03-04T20:35:20.965Z,6.47
2023-03-04T20:37:47.915Z,7.10
2023-03-04T20:40:14.781Z,6.87
2023-03-04T20:42:41.808Z,6.57
2023-03-04T20:45:09.040Z,6.12
2023-03-04T20:47:37.972Z,6.72
2023-03-04T20:50:06.721Z,5.70
2023-03-04T20:52:33.641Z,5.35
2023-03-04T20:55:00.525Z,4.75
2023-03-04T20:57:27.490Z,6.72
2023-03-04T20:59:54.354Z,6.00
2023-03-04T21:02:23.556Z,5.30
2023-03-04T21:04:50.494Z,5.53
2023-03-04T21:07:17.863Z,6.07
2023-03-04T21:09:45.290Z,6.40
2023-03-04T21:12:12.170Z,4.28
2023-03-04T21:14:39.876Z,6.87
2023-03-04T21:17:06.816Z,6.15
2023-03-04T21:19:36.614Z,5.60
2023-03-04T21:22:04.441Z,7.22
2023-03-04T21:24:33.425Z,7.05
2023-03-04T21:27:01.711Z,4.93
2023-03-04T21:29:28.730Z,6.32
2023-03-04T21:32:13.072Z,7.20
2023-03-04T21:34:52.397Z,6.05
2023-03-04T21:37:20.658Z,5.68
2023-03-04T21:39:47.690Z,6.00
2023-03-04T21:42:14.594Z,5.00
2023-03-04T21:44:50.556Z,5.45
2023-03-04T21:47:19.256Z,5.87
2023-03-04T21:49:46.582Z,5.55
2023-03-04T21:52:13.486Z,5.95
2023-03-04T21:54:40.406Z,6.05
2023-03-04T21:57:07.336Z,4.82
2023-03-04T21:59:34.251Z,6.07
2023-03-04T22:02:01.833Z,5.05
2023-03-04T22:04:28.755Z,6.45
2023-03-04T22:06:55.600Z,5.10
2023-03-04T22:09:22.577Z,4.55
2023-03-04T22:11:49.443Z,5.70
2023-03-04T22:14:16.357Z,4.78
2023-03-04T22:16:59.025Z,5.37
2023-03-04T22:19:28.441Z,5.75
2023-03-04T22:21:55.380Z,6.12
2023-03-04T22:24:22.515Z,5.05
2023-03-04T22:26:49.438Z,6.10
2023-03-04T22:29:16.343Z,5.47
2023-03-04T22:31:43.236Z,5.53
2023-03-04T22:34:12.914Z,5.50
2023-03-04T22:36:41.832Z,6.03
2023-03-04T22:39:10.893Z,4.62
2023-03-04T22:41:38.236Z,5.90
2023-03-04T22:44:08.915Z,5.28
2023-03-04T22:46:38.404Z,3.78
2023-03-04T22:49:09.645Z,4.80
2023-03-04T22:51:37.913Z,5.32
2023-03-04T22:54:04.882Z,4.35
2023-03-04T22:56:31.832Z,5.60
2023-03-04T22:58:58.897Z,5.12
2023-03-04T23:01:25.786Z,5.03
2023-03-04T23:03:53.217Z,5.60
2023-03-04T23:06:22.992Z,5.68
2023-03-04T23:08:51.033Z,4.65
2023-03-04T23:11:21.292Z,5.07
2023-03-04T23:13:49.284Z,4.95
2023-03-04T23:16:16.612Z,5.32
2023-03-04T23:18:46.675Z,4.07
2023-03-04T23:21:16.478Z,5.55
2023-03-04T23:23:43.388Z,4.95
2023-03-04T23:26:26.193Z,5.37
2023-03-04T23:28:55.825Z,4.50
2023-03-04T23:31:23.208Z,5.03
2023-03-04T23:33:50.265Z,4.78
2023-03-04T23:36:18.875Z,4.68
2023-03-04T23:38:47.696Z,5.15
2023-03-04T23:41:17.123Z,5.30
2023-03-04T23:43:45.370Z,4.65
2023-03-04T23:46:12.433Z,5.00
2023-03-04T23:48:40.808Z,4.45
2023-03-04T23:51:09.483Z,4.30
2023-03-04T23:53:39.098Z,3.90
2023-03-04T23:56:13.202Z,4.25
2023-03-04T23:58:40.967Z,4.50
